sensor_id;sensor_type;location;lat;lon;timestamp;P1;durP1;ratioP1;P2;durP2;ratioP2
71207;SDS011;58938;49.868;8.646;2023-02-01T00:01:22;11.63;;;6.35;;
71207;SDS011;58938;49.868;8.646;2023-02-01T00:03:48;10.43;;;6.47;;
71207;SDS011;58938;49.868;8.646;2023-02-01T00:06:14;10.02;;;5.60;;
71207;SDS011;58938;49.868;8.646;2023-02-01T00:08:40;7.90;;;5.37;;
71207;SDS011;58938;49.868;8.646;2023-02-01T00:11:10;9.52;;;5.47;;
71207;SDS011;58938;49.868;8.646;2023-02-01T00:13:38;10.93;;;5.55;;
71207;SDS011;58938;49.868;8.646;2023-02-01T00:18:33;12.20;;;6.60;;
71207;SDS011;58938;49.868;8.646;2023-02-01T00:20:59;11.80;;;6.80;;
71207;SDS011;58938;49.868;8.646;2023-02-01T00:23:25;12.30;;;6.43;;
71207;SDS011;58938;49.868;8.646;2023-02-01T00:25:51;10.77;;;5.60;;
71207;SDS011;58938;49.868;8.646;2023-02-01T00:28:17;8.90;;;5.13;;
71207;SDS011;58938;49.868;8.646;2023-02-01T00:30:43;10.90;;;5.60;;
71207;SDS011;58938;49.868;8.646;2023-02-01T00:33:09;7.32;;;4.40;;
71207;SDS011;58938;49.868;8.646;2023-02-01T00:35:35;10.73;;;5.50;;
71207;SDS011;58938;49.868;8.646;2023-02-01T00:38:01;8.40;;;4.68;;
71207;SDS011;58938;49.868;8.646;2023-02-01T00:40:27;7.77;;;4.17;;
71207;SDS011;58938;49.868;8.646;2023-02-01T00:42:53;11.20;;;6.57;;
71207;SDS011;58938;49.868;8.646;2023-02-01T00:45:19;11.10;;;6.57;;
71207;SDS011;58938;49.868;8.646;2023-02-01T00:47:45;13.25;;;6.53;;
71207;SDS011;58938;49.868;8.646;2023-02-01T00:50:11;11.10;;;7.17;;
71207;SDS011;58938;49.868;8.646;2023-02-01T00:52:37;11.30;;;6.65;;
71207;SDS011;58938;49.868;8.646;2023-02-01T00:55:03;12.90;;;7.38;;
71207;SDS011;58938;49.868;8.646;2023-02-01T00:57:32;12.38;;;6.95;;
71207;SDS011;58938;49.868;8.646;2023-02-01T00:59:58;12.85;;;7.72;;
71207;SDS011;58938;49.868;8.646;2023-02-01T01:02:25;11.80;;;6.83;;
71207;SDS011;58938;49.868;8.646;2023-02-01T01:04:52;9.48;;;4.68;;
71207;SDS011;58938;49.868;8.646;2023-02-01T01:07:18;10.85;;;6.10;;
71207;SDS011;58938;49.868;8.646;2023-02-01T01:09:44;10.50;;;6.25;;
71207;SDS011;58938;49.868;8.646;2023-02-01T01:12:10;10.83;;;5.90;;
71207;SDS011;58938;49.868;8.646;2023-02-01T01:14:36;7.97;;;4.57;;
71207;SDS011;58938;49.868;8.646;2023-02-01T01:17:02;14.55;;;6.80;;
71207;SDS011;58938;49.868;8.646;2023-02-01T01:19:28;9.07;;;5.67;;
71207;SDS011;58938;49.868;8.646;2023-02-01T01:21:54;11.93;;;6.50;;
71207;SDS011;58938;49.868;8.646;2023-02-01T01:24:20;8.73;;;3.72;;
71207;SDS011;58938;49.868;8.646;2023-02-01T01:26:46;13.18;;;7.28;;
71207;SDS011;58938;49.868;8.646;2023-02-01T01:29:12;10.80;;;4.93;;
71207;SDS011;58938;49.868;8.646;2023-02-01T01:31:38;7.60;;;4.03;;
71207;SDS011;58938;49.868;8.646;2023-02-01T01:34:03;11.32;;;7.50;;
71207;SDS011;58938;49.868;8.646;2023-02-01T01:36:29;9.35;;;6.28;;
71207;SDS011;58938;49.868;8.646;2023-02-01T01:38:55;9.33;;;5.67;;
71207;SDS011;58938;49.868;8.646;2023-02-01T01:41:22;14.80;;;6.88;;
71207;SDS011;58938;49.868;8.646;2023-02-01T01:46:16;9.77;;;6.50;;
71207;SDS011;58938;49.868;8.646;2023-02-01T01:48:42;11.50;;;7.20;;
71207;SDS011;58938;49.868;8.646;2023-02-01T01:51:09;9.43;;;5.40;;
71207;SDS011;58938;49.868;8.646;2023-02-01T01:53:45;12.05;;;7.38;;
71207;SDS011;58938;49.868;8.646;2023-02-01T01:56:13;13.75;;;8.25;;
71207;SDS011;58938;49.868;8.646;2023-02-01T01:58:40;9.23;;;4.93;;
71207;SDS011;58938;49.868;8.646;2023-02-01T02:01:06;8.73;;;3.67;;
71207;SDS011;58938;49.868;8.646;2023-02-01T02:03:37;12.90;;;7.35;;
71207;SDS011;58938;49.868;8.646;2023-02-01T02:06:05;11.15;;;6.68;;
71207;SDS011;58938;49.868;8.646;2023-02-01T02:08:35;14.80;;;7.57;;
71207;SDS011;58938;49.868;8.646;2023-02-01T02:11:00;12.77;;;7.53;;
71207;SDS011;58938;49.868;8.646;2023-02-01T02:13:27;15.13;;;8.57;;
71207;SDS011;58938;49.868;8.646;2023-02-01T02:21:16;9.30;;;4.18;;
71207;SDS011;58938;49.868;8.646;2023-02-01T02:28:52;15.70;;;6.95;;
71207;SDS011;58938;49.868;8.646;2023-02-01T02:34:05;13.47;;;7.27;;
71207;SDS011;58938;49.868;8.646;2023-02-01T02:47:24;10.83;;;6.10;;
71207;SDS011;58938;49.868;8.646;2023-02-01T02:49:58;15.73;;;7.18;;
71207;SDS011;58938;49.868;8.646;2023-02-01T02:52:49;14.98;;;8.63;;
71207;SDS011;58938;49.868;8.646;2023-02-01T02:55:35;19.38;;;9.13;;
71207;SDS011;58938;49.868;8.646;2023-02-01T02:58:02;17.38;;;8.98;;
71207;SDS011;58938;49.868;8.646;2023-02-01T03:00:49;22.97;;;10.97;;
71207;SDS011;58938;49.868;8.646;2023-02-01T03:03:38;16.40;;;8.93;;
71207;SDS011;58938;49.868;8.646;2023-02-01T03:06:23;23.58;;;11.45;;
71207;SDS011;58938;49.868;8.646;2023-02-01T03:08:50;17.98;;;8.98;;
71207;SDS011;58938;49.868;8.646;2023-02-01T03:11:21;28.50;;;13.35;;
71207;SDS011;58938;49.868;8.646;2023-02-01T03:14:09;29.17;;;13.00;;
71207;SDS011;58938;49.868;8.646;2023-02-01T03:16:39;24.67;;;12.57;;
71207;SDS011;58938;49.868;8.646;2023-02-01T03:21:36;22.20;;;9.15;;
71207;SDS011;58938;49.868;8.646;2023-02-01T03:24:04;17.63;;;7.73;;
71207;SDS011;58938;49.868;8.646;2023-02-01T03:26:32;18.17;;;7.40;;
71207;SDS011;58938;49.868;8.646;2023-02-01T03:29:02;14.30;;;7.85;;
71207;SDS011;58938;49.868;8.646;2023-02-01T03:31:31;15.13;;;7.90;;
71207;SDS011;58938;49.868;8.646;2023-02-01T03:33:57;18.83;;;8.18;;
71207;SDS011;58938;49.868;8.646;2023-02-01T03:36:25;14.93;;;7.30;;
71207;SDS011;58938;49.868;8.646;2023-02-01T03:39:15;11.90;;;6.03;;
71207;SDS011;58938;49.868;8.646;2023-02-01T03:41:43;11.32;;;5.40;;
71207;SDS011;58938;49.868;8.646;2023-02-01T03:44:16;17.85;;;7.20;;
71207;SDS011;58938;49.868;8.646;2023-02-01T03:46:52;15.32;;;7.75;;
71207;SDS011;58938;49.868;8.646;2023-02-01T03:49:24;14.70;;;7.77;;
71207;SDS011;58938;49.868;8.646;2023-02-01T03:51:52;14.90;;;6.47;;
71207;SDS011;58938;49.868;8.646;2023-02-01T03:54:18;17.80;;;8.60;;
71207;SDS011;58938;49.868;8.646;2023-02-01T03:56:45;16.88;;;7.10;;
71207;SDS011;58938;49.868;8.646;2023-02-01T03:59:12;12.95;;;7.05;;
71207;SDS011;58938;49.868;8.646;2023-02-01T04:01:39;19.77;;;8.40;;
71207;SDS011;58938;49.868;8.646;2023-02-01T04:04:06;16.90;;;7.78;;
71207;SDS011;58938;49.868;8.646;2023-02-01T04:06:34;16.00;;;7.88;;
71207;SDS011;58938;49.868;8.646;2023-02-01T04:09:00;13.13;;;6.57;;
71207;SDS011;58938;49.868;8.646;2023-02-01T04:11:27;18.83;;;8.32;;
71207;SDS011;58938;49.868;8.646;2023-02-01T04:13:54;18.90;;;7.97;;
71207;SDS011;58938;49.868;8.646;2023-02-01T04:16:20;15.35;;;6.78;;
71207;SDS011;58938;49.868;8.646;2023-02-01T04:18:46;16.15;;;8.27;;
71207;SDS011;58938;49.868;8.646;2023-02-01T04:21:12;20.98;;;8.68;;
71207;SDS011;58938;49.868;8.646;2023-02-01T04:23:38;16.10;;;7.40;;
71207;SDS011;58938;49.868;8.646;2023-02-01T04:26:04;21.23;;;9.27;;
71207;SDS011;58938;49.868;8.646;2023-02-01T04:28:30;17.25;;;7.93;;
71207;SDS011;58938;49.868;8.646;2023-02-01T04:30:56;18.75;;;8.90;;
71207;SDS011;58938;49.868;8.646;2023-02-01T04:33:22;17.25;;;9.18;;
71207;SDS011;58938;49.868;8.646;2023-02-01T04:35:48;15.87;;;7.70;;
71207;SDS011;58938;49.868;8.646;2023-02-01T04:38:14;15.52;;;6.85;;
71207;SDS011;58938;49.868;8.646;2023-02-01T04:40:40;9.82;;;5.13;;
71207;SDS011;58938;49.868;8.646;2023-02-01T04:43:06;17.23;;;7.25;;
71207;SDS011;58938;49.868;8.646;2023-02-01T04:45:33;6.90;;;4.10;;
71207;SDS011;58938;49.868;8.646;2023-02-01T04:47:58;9.10;;;4.73;;
71207;SDS011;58938;49.868;8.646;2023-02-01T04:50:24;12.00;;;6.10;;
71207;SDS011;58938;49.868;8.646;2023-02-01T04:52:50;11.35;;;4.88;;
71207;SDS011;58938;49.868;8.646;2023-02-01T04:55:16;10.68;;;6.03;;
71207;SDS011;58938;49.868;8.646;2023-02-01T04:57:42;6.23;;;2.93;;
71207;SDS011;58938;49.868;8.646;2023-02-01T05:00:09;10.05;;;5.07;;
71207;SDS011;58938;49.868;8.646;2023-02-01T05:02:35;9.20;;;5.07;;
71207;SDS011;58938;49.868;8.646;2023-02-01T05:05:01;15.20;;;5.90;;
71207;SDS011;58938;49.868;8.646;2023-02-01T05:07:27;9.73;;;5.50;;
71207;SDS011;58938;49.868;8.646;2023-02-01T05:09:53;14.68;;;5.22;;
71207;SDS011;58938;49.868;8.646;2023-02-01T05:12:19;9.98;;;6.20;;
71207;SDS011;58938;49.868;8.646;2023-02-01T05:15:04;11.48;;;5.35;;
71207;SDS011;58938;49.868;8.646;2023-02-01T05:17:30;8.93;;;4.63;;
71207;SDS011;58938;49.868;8.646;2023-02-01T05:19:56;11.18;;;4.63;;
71207;SDS011;58938;49.868;8.646;2023-02-01T05:22:22;11.27;;;4.47;;
71207;SDS011;58938;49.868;8.646;2023-02-01T05:24:48;9.60;;;3.53;;
71207;SDS011;58938;49.868;8.646;2023-02-01T05:27:14;8.75;;;4.97;;
71207;SDS011;58938;49.868;8.646;2023-02-01T05:29:40;12.13;;;4.57;;
71207;SDS011;58938;49.868;8.646;2023-02-01T05:32:06;7.75;;;4.57;;
71207;SDS011;58938;49.868;8.646;2023-02-01T05:34:32;5.63;;;3.15;;
71207;SDS011;58938;49.868;8.646;2023-02-01T05:36:58;8.23;;;3.50;;
71207;SDS011;58938;49.868;8.646;2023-02-01T05:39:23;8.65;;;3.78;;
71207;SDS011;58938;49.868;8.646;2023-02-01T05:41:49;7.72;;;3.05;;
71207;SDS011;58938;49.868;8.646;2023-02-01T05:44:15;6.45;;;3.45;;
71207;SDS011;58938;49.868;8.646;2023-02-01T05:46:41;7.03;;;2.63;;
71207;SDS011;58938;49.868;8.646;2023-02-01T05:49:07;5.40;;;2.35;;
71207;SDS011;58938;49.868;8.646;2023-02-01T05:51:33;7.90;;;3.30;;
71207;SDS011;58938;49.868;8.646;2023-02-01T05:53:59;8.52;;;3.42;;
71207;SDS011;58938;49.868;8.646;2023-02-01T05:56:25;9.68;;;3.50;;
71207;SDS011;58938;49.868;8.646;2023-02-01T05:58:51;7.47;;;2.80;;
71207;SDS011;58938;49.868;8.646;2023-02-01T06:01:17;6.13;;;2.40;;
71207;SDS011;58938;49.868;8.646;2023-02-01T06:03:43;6.28;;;3.25;;
71207;SDS011;58938;49.868;8.646;2023-02-01T06:06:09;9.17;;;3.80;;
71207;SDS011;58938;49.868;8.646;2023-02-01T06:08:35;6.70;;;2.83;;
71207;SDS011;58938;49.868;8.646;2023-02-01T06:11:04;5.25;;;2.88;;
71207;SDS011;58938;49.868;8.646;2023-02-01T06:13:31;8.88;;;3.70;;
71207;SDS011;58938;49.868;8.646;2023-02-01T06:15:57;10.63;;;2.80;;
71207;SDS011;58938;49.868;8.646;2023-02-01T06:18:23;7.57;;;2.83;;
71207;SDS011;58938;49.868;8.646;2023-02-01T06:20:53;7.32;;;3.53;;
71207;SDS011;58938;49.868;8.646;2023-02-01T06:23:20;6.65;;;2.95;;
71207;SDS011;58938;49.868;8.646;2023-02-01T06:25:48;12.88;;;3.55;;
71207;SDS011;58938;49.868;8.646;2023-02-01T06:28:14;5.83;;;2.77;;
71207;SDS011;58938;49.868;8.646;2023-02-01T06:30:40;6.68;;;3.38;;
71207;SDS011;58938;49.868;8.646;2023-02-01T06:33:10;6.30;;;2.67;;
71207;SDS011;58938;49.868;8.646;2023-02-01T06:35:36;6.88;;;3.22;;
71207;SDS011;58938;49.868;8.646;2023-02-01T06:38:02;6.40;;;2.70;;
71207;SDS011;58938;49.868;8.646;2023-02-01T06:40:28;7.63;;;3.35;;
71207;SDS011;58938;49.868;8.646;2023-02-01T06:42:54;7.82;;;3.50;;
71207;SDS011;58938;49.868;8.646;2023-02-01T06:45:20;6.73;;;3.60;;
71207;SDS011;58938;49.868;8.646;2023-02-01T06:47:46;8.67;;;3.67;;
71207;SDS011;58938;49.868;8.646;2023-02-01T06:50:12;8.15;;;4.43;;
71207;SDS011;58938;49.868;8.646;2023-02-01T06:52:38;9.48;;;3.35;;
71207;SDS011;58938;49.868;8.646;2023-02-01T06:55:04;9.30;;;4.13;;
71207;SDS011;58938;49.868;8.646;2023-02-01T06:57:30;4.05;;;2.50;;
71207;SDS011;58938;49.868;8.646;2023-02-01T06:59:58;7.13;;;3.13;;
71207;SDS011;58938;49.868;8.646;2023-02-01T07:02:24;6.88;;;3.13;;
71207;SDS011;58938;49.868;8.646;2023-02-01T07:04:49;9.02;;;3.38;;
71207;SDS011;58938;49.868;8.646;2023-02-01T07:07:15;8.77;;;3.93;;
71207;SDS011;58938;49.868;8.646;2023-02-01T07:09:44;7.43;;;3.40;;
71207;SDS011;58938;49.868;8.646;2023-02-01T07:12:10;7.07;;;3.33;;
71207;SDS011;58938;49.868;8.646;2023-02-01T07:14:36;7.27;;;3.53;;
71207;SDS011;58938;49.868;8.646;2023-02-01T07:17:04;7.90;;;3.53;;
71207;SDS011;58938;49.868;8.646;2023-02-01T07:19:30;7.22;;;3.00;;
71207;SDS011;58938;49.868;8.646;2023-02-01T07:21:56;7.03;;;3.55;;
71207;SDS011;58938;49.868;8.646;2023-02-01T07:24:22;6.53;;;3.78;;
71207;SDS011;58938;49.868;8.646;2023-02-01T07:26:48;8.50;;;3.43;;
71207;SDS011;58938;49.868;8.646;2023-02-01T07:29:16;7.30;;;3.00;;
71207;SDS011;58938;49.868;8.646;2023-02-01T07:31:42;6.88;;;3.63;;
71207;SDS011;58938;49.868;8.646;2023-02-01T07:34:08;9.15;;;3.80;;
71207;SDS011;58938;49.868;8.646;2023-02-01T07:36:34;9.45;;;4.47;;
71207;SDS011;58938;49.868;8.646;2023-02-01T07:39:01;12.83;;;4.40;;
71207;SDS011;58938;49.868;8.646;2023-02-01T07:41:27;10.15;;;4.68;;
71207;SDS011;58938;49.868;8.646;2023-02-01T07:43:53;9.85;;;4.75;;
71207;SDS011;58938;49.868;8.646;2023-02-01T07:46:19;9.95;;;4.45;;
71207;SDS011;58938;49.868;8.646;2023-02-01T07:48:45;9.43;;;4.93;;
71207;SDS011;58938;49.868;8.646;2023-02-01T07:51:12;10.90;;;4.40;;
71207;SDS011;58938;49.868;8.646;2023-02-01T07:53:39;12.57;;;4.95;;
71207;SDS011;58938;49.868;8.646;2023-02-01T07:56:14;10.30;;;4.35;;
71207;SDS011;58938;49.868;8.646;2023-02-01T07:58:41;9.48;;;4.65;;
71207;SDS011;58938;49.868;8.646;2023-02-01T08:01:14;10.63;;;4.37;;
71207;SDS011;58938;49.868;8.646;2023-02-01T08:03:46;14.73;;;5.68;;
71207;SDS011;58938;49.868;8.646;2023-02-01T08:06:12;14.38;;;4.85;;
71207;SDS011;58938;49.868;8.646;2023-02-01T08:08:38;10.18;;;4.10;;
71207;SDS011;58938;49.868;8.646;2023-02-01T08:11:05;9.85;;;5.35;;
71207;SDS011;58938;49.868;8.646;2023-02-01T08:13:32;14.50;;;5.90;;
71207;SDS011;58938;49.868;8.646;2023-02-01T08:15:58;9.07;;;4.57;;
71207;SDS011;58938;49.868;8.646;2023-02-01T08:18:25;14.93;;;5.97;;
71207;SDS011;58938;49.868;8.646;2023-02-01T08:20:50;12.95;;;5.68;;
71207;SDS011;58938;49.868;8.646;2023-02-01T08:23:17;10.20;;;4.68;;
71207;SDS011;58938;49.868;8.646;2023-02-01T08:25:43;7.73;;;3.43;;
71207;SDS011;58938;49.868;8.646;2023-02-01T08:28:09;11.50;;;4.93;;
71207;SDS011;58938;49.868;8.646;2023-02-01T08:30:36;9.85;;;4.53;;
71207;SDS011;58938;49.868;8.646;2023-02-01T08:33:03;10.00;;;4.70;;
71207;SDS011;58938;49.868;8.646;2023-02-01T08:35:30;10.88;;;6.03;;
71207;SDS011;58938;49.868;8.646;2023-02-01T08:37:56;11.73;;;4.93;;
71207;SDS011;58938;49.868;8.646;2023-02-01T08:40:22;14.40;;;5.20;;
71207;SDS011;58938;49.868;8.646;2023-02-01T08:42:48;12.02;;;6.05;;
71207;SDS011;58938;49.868;8.646;2023-02-01T08:45:27;10.05;;;4.18;;
71207;SDS011;58938;49.868;8.646;2023-02-01T08:47:55;8.90;;;4.75;;
71207;SDS011;58938;49.868;8.646;2023-02-01T08:50:22;11.60;;;4.77;;
71207;SDS011;58938;49.868;8.646;2023-02-01T08:52:48;9.38;;;4.55;;
71207;SDS011;58938;49.868;8.646;2023-02-01T08:55:14;12.00;;;4.60;;
71207;SDS011;58938;49.868;8.646;2023-02-01T08:57:40;11.93;;;4.32;;
71207;SDS011;58938;49.868;8.646;2023-02-01T09:00:07;11.27;;;4.20;;
71207;SDS011;58938;49.868;8.646;2023-02-01T09:02:34;12.50;;;4.10;;
71207;SDS011;58938;49.868;8.646;2023-02-01T09:05:00;9.20;;;4.32;;
71207;SDS011;58938;49.868;8.646;2023-02-01T09:07:26;7.25;;;3.40;;
71207;SDS011;58938;49.868;8.646;2023-02-01T09:09:52;9.95;;;4.72;;
71207;SDS011;58938;49.868;8.646;2023-02-01T09:12:19;10.17;;;4.43;;
71207;SDS011;58938;49.868;8.646;2023-02-01T09:14:45;9.07;;;4.68;;
71207;SDS011;58938;49.868;8.646;2023-02-01T09:17:11;10.65;;;3.50;;
71207;SDS011;58938;49.868;8.646;2023-02-01T09:19:38;9.52;;;3.95;;
71207;SDS011;58938;49.868;8.646;2023-02-01T09:22:04;7.70;;;3.85;;
71207;SDS011;58938;49.868;8.646;2023-02-01T09:24:30;8.17;;;4.07;;
71207;SDS011;58938;49.868;8.646;2023-02-01T09:26:56;12.27;;;4.90;;
71207;SDS011;58938;49.868;8.646;2023-02-01T09:29:22;9.80;;;3.30;;
71207;SDS011;58938;49.868;8.646;2023-02-01T09:31:48;9.00;;;3.30;;
71207;SDS011;58938;49.868;8.646;2023-02-01T09:34:14;8.00;;;3.13;;
71207;SDS011;58938;49.868;8.646;2023-02-01T09:36:40;8.80;;;3.72;;
71207;SDS011;58938;49.868;8.646;2023-02-01T09:39:06;11.10;;;4.00;;
71207;SDS011;58938;49.868;8.646;2023-02-01T09:44:01;13.52;;;4.47;;
71207;SDS011;58938;49.868;8.646;2023-02-01T09:46:33;12.25;;;4.57;;
71207;SDS011;58938;49.868;8.646;2023-02-01T09:49:01;7.97;;;3.63;;
71207;SDS011;58938;49.868;8.646;2023-02-01T09:51:30;9.70;;;3.92;;
71207;SDS011;58938;49.868;8.646;2023-02-01T09:54:02;7.27;;;3.33;;
71207;SDS011;58938;49.868;8.646;2023-02-01T09:56:48;10.93;;;3.95;;
71207;SDS011;58938;49.868;8.646;2023-02-01T09:59:26;11.35;;;3.90;;
71207;SDS011;58938;49.868;8.646;2023-02-01T10:01:58;8.02;;;3.30;;
71207;SDS011;58938;49.868;8.646;2023-02-01T10:04:25;9.88;;;3.33;;
71207;SDS011;58938;49.868;8.646;2023-02-01T10:06:55;11.57;;;3.27;;
71207;SDS011;58938;49.868;8.646;2023-02-01T10:17:28;12.27;;;2.92;;
71207;SDS011;58938;49.868;8.646;2023-02-01T10:22:36;8.88;;;3.00;;
71207;SDS011;58938;49.868;8.646;2023-02-01T10:27:36;8.70;;;2.45;;
71207;SDS011;58938;49.868;8.646;2023-02-01T10:32:38;9.80;;;2.90;;
71207;SDS011;58938;49.868;8.646;2023-02-01T10:35:09;11.48;;;2.88;;
71207;SDS011;58938;49.868;8.646;2023-02-01T10:37:39;17.60;;;3.65;;
71207;SDS011;58938;49.868;8.646;2023-02-01T10:42:38;6.68;;;2.92;;
71207;SDS011;58938;49.868;8.646;2023-02-01T10:45:05;9.23;;;3.50;;
71207;SDS011;58938;49.868;8.646;2023-02-01T10:47:31;10.82;;;3.40;;
71207;SDS011;58938;49.868;8.646;2023-02-01T10:50:15;11.23;;;3.42;;
71207;SDS011;58938;49.868;8.646;2023-02-01T10:52:47;10.35;;;3.13;;
71207;SDS011;58938;49.868;8.646;2023-02-01T10:55:26;8.50;;;3.05;;
71207;SDS011;58938;49.868;8.646;2023-02-01T10:58:00;9.83;;;3.43;;
71207;SDS011;58938;49.868;8.646;2023-02-01T11:00:27;6.68;;;2.88;;
71207;SDS011;58938;49.868;8.646;2023-02-01T11:02:53;6.38;;;2.63;;
71207;SDS011;58938;49.868;8.646;2023-02-01T11:05:21;5.47;;;2.58;;
71207;SDS011;58938;49.868;8.646;2023-02-01T11:07:48;8.10;;;3.70;;
71207;SDS011;58938;49.868;8.646;2023-02-01T11:10:38;8.70;;;2.27;;
71207;SDS011;58938;49.868;8.646;2023-02-01T11:13:11;8.65;;;3.30;;
71207;SDS011;58938;49.868;8.646;2023-02-01T11:15:39;7.35;;;2.75;;
71207;SDS011;58938;49.868;8.646;2023-02-01T11:18:18;6.60;;;2.70;;
71207;SDS011;58938;49.868;8.646;2023-02-01T11:20:44;12.05;;;3.47;;
71207;SDS011;58938;49.868;8.646;2023-02-01T11:23:15;8.13;;;3.23;;
71207;SDS011;58938;49.868;8.646;2023-02-01T11:25:52;10.60;;;3.67;;
71207;SDS011;58938;49.868;8.646;2023-02-01T11:28:19;9.80;;;3.65;;
71207;SDS011;58938;49.868;8.646;2023-02-01T11:30:46;12.88;;;2.75;;
71207;SDS011;58938;49.868;8.646;2023-02-01T11:33:17;8.32;;;2.85;;
71207;SDS011;58938;49.868;8.646;2023-02-01T11:35:44;13.53;;;3.50;;
71207;SDS011;58938;49.868;8.646;2023-02-01T11:38:12;5.53;;;2.22;;
71207;SDS011;58938;49.868;8.646;2023-02-01T11:40:39;9.27;;;3.10;;
71207;SDS011;58938;49.868;8.646;2023-02-01T11:43:22;9.50;;;2.85;;
71207;SDS011;58938;49.868;8.646;2023-02-01T11:45:56;15.02;;;3.25;;
71207;SDS011;58938;49.868;8.646;2023-02-01T11:48:23;12.30;;;3.97;;
71207;SDS011;58938;49.868;8.646;2023-02-01T11:58:18;10.17;;;3.37;;
71207;SDS011;58938;49.868;8.646;2023-02-01T12:06:21;9.68;;;3.65;;
71207;SDS011;58938;49.868;8.646;2023-02-01T12:09:05;7.63;;;2.85;;
71207;SDS011;58938;49.868;8.646;2023-02-01T12:22:33;10.20;;;2.92;;
71207;SDS011;58938;49.868;8.646;2023-02-01T12:35:12;7.50;;;2.17;;
71207;SDS011;58938;49.868;8.646;2023-02-01T12:42:40;9.98;;;3.53;;
71207;SDS011;58938;49.868;8.646;2023-02-01T12:47:53;12.68;;;2.75;;
71207;SDS011;58938;49.868;8.646;2023-02-01T12:50:25;7.93;;;1.80;;
71207;SDS011;58938;49.868;8.646;2023-02-01T12:52:58;11.27;;;3.72;;
71207;SDS011;58938;49.868;8.646;2023-02-01T12:58:14;7.32;;;2.80;;
71207;SDS011;58938;49.868;8.646;2023-02-01T13:00:45;11.70;;;2.85;;
71207;SDS011;58938;49.868;8.646;2023-02-01T13:08:28;7.45;;;2.70;;
71207;SDS011;58938;49.868;8.646;2023-02-01T13:11:18;11.90;;;2.80;;
71207;SDS011;58938;49.868;8.646;2023-02-01T13:13:49;8.38;;;2.40;;
71207;SDS011;58938;49.868;8.646;2023-02-01T13:16:22;10.53;;;2.43;;
71207;SDS011;58938;49.868;8.646;2023-02-01T13:18:52;8.88;;;3.20;;
71207;SDS011;58938;49.868;8.646;2023-02-01T13:21:24;10.75;;;3.45;;
71207;SDS011;58938;49.868;8.646;2023-02-01T13:23:51;10.45;;;2.95;;
71207;SDS011;58938;49.868;8.646;2023-02-01T13:26:18;10.23;;;2.90;;
71207;SDS011;58938;49.868;8.646;2023-02-01T13:28:45;9.43;;;2.30;;
71207;SDS011;58938;49.868;8.646;2023-02-01T13:41:52;7.37;;;2.23;;
71207;SDS011;58938;49.868;8.646;2023-02-01T13:44:24;11.32;;;2.75;;
71207;SDS011;58938;49.868;8.646;2023-02-01T13:46:51;10.50;;;2.80;;
71207;SDS011;58938;49.868;8.646;2023-02-01T13:49:21;9.35;;;3.15;;
71207;SDS011;58938;49.868;8.646;2023-02-01T13:51:50;11.73;;;2.88;;
71207;SDS011;58938;49.868;8.646;2023-02-01T13:54:27;11.63;;;2.70;;
71207;SDS011;58938;49.868;8.646;2023-02-01T13:56:53;6.45;;;2.55;;
71207;SDS011;58938;49.868;8.646;2023-02-01T14:04:57;8.15;;;2.70;;
71207;SDS011;58938;49.868;8.646;2023-02-01T14:07:23;11.33;;;2.83;;
71207;SDS011;58938;49.868;8.646;2023-02-01T14:09:49;9.55;;;2.40;;
71207;SDS011;58938;49.868;8.646;2023-02-01T14:17:46;10.23;;;3.55;;
71207;SDS011;58938;49.868;8.646;2023-02-01T14:23:01;6.18;;;2.25;;
71207;SDS011;58938;49.868;8.646;2023-02-01T14:25:31;5.05;;;2.33;;
71207;SDS011;58938;49.868;8.646;2023-02-01T14:27:58;7.55;;;2.42;;
71207;SDS011;58938;49.868;8.646;2023-02-01T14:30:24;5.72;;;2.22;;
71207;SDS011;58938;49.868;8.646;2023-02-01T14:32:50;6.20;;;2.60;;
71207;SDS011;58938;49.868;8.646;2023-02-01T14:35:20;10.20;;;2.83;;
71207;SDS011;58938;49.868;8.646;2023-02-01T14:37:47;8.50;;;2.80;;
71207;SDS011;58938;49.868;8.646;2023-02-01T14:40:19;8.57;;;2.00;;
71207;SDS011;58938;49.868;8.646;2023-02-01T14:42:46;11.18;;;2.83;;
71207;SDS011;58938;49.868;8.646;2023-02-01T14:50:22;9.68;;;3.75;;
71207;SDS011;58938;49.868;8.646;2023-02-01T14:55:21;8.60;;;2.95;;
71207;SDS011;58938;49.868;8.646;2023-02-01T14:57:50;11.07;;;2.47;;
71207;SDS011;58938;49.868;8.646;2023-02-01T15:00:20;8.10;;;2.90;;
71207;SDS011;58938;49.868;8.646;2023-02-01T15:02:47;5.93;;;2.40;;
71207;SDS011;58938;49.868;8.646;2023-02-01T15:05:35;10.48;;;3.78;;
71207;SDS011;58938;49.868;8.646;2023-02-01T15:08:07;8.73;;;2.88;;
71207;SDS011;58938;49.868;8.646;2023-02-01T15:10:40;6.47;;;1.83;;
71207;SDS011;58938;49.868;8.646;2023-02-01T15:13:12;4.60;;;2.03;;
71207;SDS011;58938;49.868;8.646;2023-02-01T15:15:38;10.77;;;4.07;;
71207;SDS011;58938;49.868;8.646;2023-02-01T15:18:04;8.93;;;2.33;;
71207;SDS011;58938;49.868;8.646;2023-02-01T15:20:31;10.52;;;3.10;;
71207;SDS011;58938;49.868;8.646;2023-02-01T15:22:59;10.73;;;3.53;;
71207;SDS011;58938;49.868;8.646;2023-02-01T15:25:29;9.15;;;2.58;;
71207;SDS011;58938;49.868;8.646;2023-02-01T15:27:55;10.93;;;3.80;;
71207;SDS011;58938;49.868;8.646;2023-02-01T15:30:26;10.38;;;2.95;;
71207;SDS011;58938;49.868;8.646;2023-02-01T15:33:03;8.55;;;3.22;;
71207;SDS011;58938;49.868;8.646;2023-02-01T15:38:25;5.88;;;2.20;;
71207;SDS011;58938;49.868;8.646;2023-02-01T15:40:56;8.88;;;2.78;;
71207;SDS011;58938;49.868;8.646;2023-02-01T15:43:23;6.03;;;2.15;;
71207;SDS011;58938;49.868;8.646;2023-02-01T15:45:50;10.73;;;2.85;;
71207;SDS011;58938;49.868;8.646;2023-02-01T15:48:20;10.27;;;2.93;;
71207;SDS011;58938;49.868;8.646;2023-02-01T15:50:47;8.48;;;3.00;;
71207;SDS011;58938;49.868;8.646;2023-02-01T15:53:16;8.80;;;2.72;;
71207;SDS011;58938;49.868;8.646;2023-02-01T15:55:43;11.48;;;3.33;;
71207;SDS011;58938;49.868;8.646;2023-02-01T15:58:21;8.95;;;2.33;;
71207;SDS011;58938;49.868;8.646;2023-02-01T16:00:49;8.67;;;2.10;;
71207;SDS011;58938;49.868;8.646;2023-02-01T16:03:36;11.20;;;2.47;;
71207;SDS011;58938;49.868;8.646;2023-02-01T16:06:03;6.82;;;3.00;;
71207;SDS011;58938;49.868;8.646;2023-02-01T16:08:30;12.77;;;3.67;;
71207;SDS011;58938;49.868;8.646;2023-02-01T16:11:01;10.95;;;3.33;;
71207;SDS011;58938;49.868;8.646;2023-02-01T16:13:27;9.23;;;2.90;;
71207;SDS011;58938;49.868;8.646;2023-02-01T16:15:53;10.65;;;3.13;;
71207;SDS011;58938;49.868;8.646;2023-02-01T16:18:19;7.85;;;3.10;;
71207;SDS011;58938;49.868;8.646;2023-02-01T16:20:46;5.68;;;2.60;;
71207;SDS011;58938;49.868;8.646;2023-02-01T16:23:12;10.02;;;3.58;;
71207;SDS011;58938;49.868;8.646;2023-02-01T16:25:39;7.50;;;2.43;;
71207;SDS011;58938;49.868;8.646;2023-02-01T16:28:05;8.43;;;2.90;;
71207;SDS011;58938;49.868;8.646;2023-02-01T16:30:32;5.03;;;2.40;;
71207;SDS011;58938;49.868;8.646;2023-02-01T16:32:58;10.80;;;3.85;;
71207;SDS011;58938;49.868;8.646;2023-02-01T16:35:28;9.32;;;3.25;;
71207;SDS011;58938;49.868;8.646;2023-02-01T16:37:58;8.33;;;2.73;;
71207;SDS011;58938;49.868;8.646;2023-02-01T16:40:24;10.98;;;3.53;;
71207;SDS011;58938;49.868;8.646;2023-02-01T16:42:51;9.73;;;3.00;;
71207;SDS011;58938;49.868;8.646;2023-02-01T16:45:17;6.65;;;2.35;;
71207;SDS011;58938;49.868;8.646;2023-02-01T16:47:50;8.65;;;3.33;;
71207;SDS011;58938;49.868;8.646;2023-02-01T16:50:17;8.80;;;3.57;;
71207;SDS011;58938;49.868;8.646;2023-02-01T16:52:44;7.28;;;3.03;;
71207;SDS011;58938;49.868;8.646;2023-02-01T16:55:12;7.43;;;3.45;;
71207;SDS011;58938;49.868;8.646;2023-02-01T16:57:38;12.05;;;3.33;;
71207;SDS011;58938;49.868;8.646;2023-02-01T17:00:04;7.38;;;3.00;;
71207;SDS011;58938;49.868;8.646;2023-02-01T17:02:30;9.13;;;3.80;;
71207;SDS011;58938;49.868;8.646;2023-02-01T17:04:57;9.10;;;3.17;;